Bob Baker Memorial Airport
PAIK : now visible

Aeroporto :











RITROVATECI SU...

 
LOGIN :

Iscrizione | Disclaimer

   EN    FR    IT 

 









Sommario :    VFR   VFR Marginale   IFR   IFR Intensivo   IFR Molto Intensivo
Visibilità : 
Base nubi : 
>= 8 km
>= 3000ft
5 / 8 km
1000 / 3000 ft
1500m / 5 km
500 / 1000 ft
800 / 1500m
200 / 500 ft
< 800m
< 200 ft
Simboli :   Temporali  Nebbia  Neve Forte  Precipitazioni Forti  Vento > 20 kt






- Altitudine del aeroporto : 166 ft
- Codice IATA : IAN


PAIK - Bob Baker Memorial

ULTIMO METAR :
  • 011956Z AUTO 07011KT 9SM CLR 21/04 A2961 RMK AO2 SLP027 T02060039

METARs OBSOLETI :
  • 011856Z AUTO 08007KT 10SM CLR 19/04 A2962 RMK AO2 SLP030 T01940039
  • 011756Z AUTO 09009KT 10SM CLR 18/03 A2962 RMK AO2 SLP031 T01830033 10183 20106 51002

TAF N/A
FIR PAZA / America del Nord



MetMap, La meteo Aeronautica in un colpo d'occhio ! - Copyright ORBIFLY Dicembre 2007 - Disclaimer

ORBIFLY MET'MAP TEAM :

Programmazione e sviluppo : Alexandra Zaïnal
Concezione : Baudouin d'Aumeries
Aiuto per la programmazione : Marc-Olivier Méhu
Supporto tecnico e logistico : Manuel Goepfert
Aiuto per la traduzione : Arnaldo La Scala

Contatto : metmap@orbifly.com




FONTI E CREDITI :

   NOAA       Earth
Advisory